Pride Of Burgundy — MQSQ9 — position and weather

sailwx.info

Track history (hours):
 
Tides and Currents Weather Stations Pressure Air Temp Water Temp Dewpoint Dewpoint Depression Visibility Wind Speed Wind Dir Waves Ship Positions

Pride Of Burgundy

Operator: P & O Ferries

Last reported at 2018-May-27 10:01 UTC. Time now 2018-May-27 10:02 UTC.
Position N 50°58' E 001°43'.

Length 180 m; draft 6.2 m.

Type: Passenger vessel. MMSI: 232001470.

Date/timePositionNaut miles runAvg speedWind from/ knotsBaromVisibWave heightAir tempDewpointWater temp
2018-May-27 10:01N 50°58' E 001°43'1020.3
2018-May-27 09:31N 51°03' E 001°29'6 3.9
2018-May-27 08:01N 51°07' E 001°22'015.9
2018-May-27 08:00N 51°07' E 001°22'815.4
2018-May-27 07:30N 51°04' E 001°33'816.1
2018-May-27 07:00N 50°59' E 001°43'5 9.6
2018-May-27 06:30N 50°58' E 001°51'0 0.0
2018-May-27 06:00N 50°58' E 001°51'0 0.0
2018-May-27 05:30N 50°58' E 001°51'0 0.0
2018-May-27 05:01N 50°58' E 001°51'0 0.0
2018-May-27 04:31N 50°58' E 001°51'0 0.0
2018-May-27 04:00N 50°58' E 001°51'0 0.0
2018-May-27 03:30N 50°58' E 001°51'0 0.0
2018-May-27 03:00N 50°58' E 001°51'0 0.0
2018-May-27 02:30N 50°58' E 001°51'0 0.0
2018-May-27 02:00N 50°58' E 001°51'0 0.0
2018-May-27 01:30N 50°58' E 001°51'0 0.0
2018-May-27 01:00N 50°58' E 001°51'0 0.0
2018-May-27 00:30N 50°58' E 001°51'0 0.0
2018-May-27 00:00N 50°58' E 001°51'0 0.0
2018-May-26 23:30N 50°58' E 001°51'0 0.0
2018-May-26 23:00N 50°58' E 001°51'0 0.0
2018-May-26 22:30N 50°58' E 001°51'0 0.0
2018-May-26 22:00N 50°58' E 001°51'0 0.0
2018-May-26 21:30N 50°58' E 001°51'0 0.0
2018-May-26 21:00N 50°58' E 001°51'0 0.0
2018-May-26 20:30N 50°58' E 001°51'0 0.0
2018-May-26 20:00N 50°58' E 001°51'4 7.2
2018-May-26 19:30N 50°58' E 001°45'815.8
2018-May-26 19:00N 50°60' E 001°33'816.6
2018-May-26 18:30N 51°06' E 001°24'3 2.9
2018-May-26 17:27N 51°07' E 001°20'3 7.0
2018-May-26 17:01N 51°07' E 001°25'917.5
2018-May-26 16:30N 51°02' E 001°36'918.6
2018-May-26 16:01N 50°58' E 001°50'1 1.4
2018-May-26 15:30N 50°58' E 001°51'1 2.9
2018-May-26 15:00N 50°58' E 001°49'815.6
2018-May-26 14:30N 50°60' E 001°37'1019.2
2018-May-26 14:00N 51°06' E 001°24'3 5.0
2018-May-26 13:22N 51°07' E 001°20'0 0.1
2018-May-26 12:47N 51°07' E 001°20'415.2
2018-May-26 12:30N 51°06' E 001°27'1017.7
2018-May-26 11:56N 51°00' E 001°39'716.4
2018-May-26 11:30N 50°58' E 001°50'1 1.2
2018-May-26 11:01N 50°58' E 001°51'0 0.0
2018-May-26 10:30N 50°58' E 001°51'511.0
2018-May-26 10:01N 50°58' E 001°42'1019.5
2018-May-26 09:30N 51°03' E 001°29'6 3.5
2018-May-26 07:52N 51°07' E 001°22'718.9
2018-May-26 07:31N 51°05' E 001°32'918.1
2018-May-26 07:01N 50°59' E 001°43'5 3.0
2018-May-26 05:31N 50°58' E 001°50'917.0
2018-May-26 05:00N 50°59' E 001°37'1019.1
2018-May-26 04:31N 51°06' E 001°26'3 1.5
2018-May-26 02:52N 51°07' E 001°22'719.6
2018-May-26 02:30N 51°03' E 001°32'1019.7
2018-May-26 02:00N 50°58' E 001°45'4 7.4
2018-May-26 01:26N 50°58' E 001°52'0 0.0
2018-May-26 01:00N 50°58' E 001°52'0 0.0
2018-May-26 00:30N 50°58' E 001°52'0 0.0
2018-May-26 00:00N 50°58' E 001°52'0 0.0
2018-May-25 23:30N 50°58' E 001°52'0 0.0
2018-May-25 22:42N 50°58' E 001°52'0 0.0
2018-May-25 22:27N 50°58' E 001°52'0 0.0
2018-May-25 22:00N 50°58' E 001°52'0 0.0
2018-May-25 21:30N 50°58' E 001°52'0 0.0
2018-May-25 20:45N 50°58' E 001°52'0 0.0
2018-May-25 20:29N 50°58' E 001°52'0 0.0
2018-May-25 19:59N 50°58' E 001°52'0 0.1
2018-May-25 19:30N 50°58' E 001°52'816.1
2018-May-25 19:01N 50°59' E 001°39'1019.5
2018-May-25 18:30N 51°04' E 001°26'5 4.1
2018-May-25 17:21N 51°07' E 001°20'412.4
2018-May-25 17:00N 51°05' E 001°26'1020.1
2018-May-25 16:31N 50°60' E 001°39'815.0
2018-May-25 16:00N 50°58' E 001°51'0 0.0
2018-May-25 15:30N 50°58' E 001°51'510.9
2018-May-25 15:00N 50°58' E 001°42'815.5
2018-May-25 14:30N 51°01' E 001°31'815.8
2018-May-25 14:00N 51°07' E 001°23'2 1.3
2018-May-25 12:44N 51°07' E 001°20'210.1
2018-May-25 12:30N 51°07' E 001°24'1019.1
2018-May-25 12:00N 51°02' E 001°36'918.1
2018-May-25 11:30N 50°58' E 001°50'1 1.9
2018-May-25 11:00N 50°58' E 001°51'0 0.0
2018-May-25 10:30N 50°58' E 001°51'613.0
2018-May-25 10:00N 50°59' E 001°41'1019.5
2018-May-25 09:30N 51°04' E 001°28'6 4.9
2018-May-25 08:17N 51°07' E 001°20'1 4.2
2018-May-25 08:00N 51°07' E 001°22'816.1
2018-May-25 07:30N 51°06' E 001°34'918.0
2018-May-25 07:00N 50°59' E 001°43'510.1
2018-May-25 06:30N 50°58' E 001°51'0 0.0
2018-May-25 06:01N 50°58' E 001°51'1 1.6
2018-May-25 05:30N 50°59' E 001°50'816.4
2018-May-25 05:00N 50°60' E 001°37'918.4
2018-May-25 04:30N 51°05' E 001°25'4 2.7
2018-May-25 03:06N 51°07' E 001°20'1 9.0
2018-May-25 02:56N 51°07' E 001°23'817.8
2018-May-25 02:30N 51°05' E 001°34'918.6
2018-May-25 02:00N 50°58' E 001°44'4 8.4
2018-May-25 01:30N 50°58' E 001°51'0 0.0
2018-May-25 01:01N 50°58' E 001°51'0 0.0
2018-May-25 00:31N 50°58' E 001°51'0 0.0
2018-May-25 00:01N 50°58' E 001°51'0 0.0
2018-May-24 23:30N 50°58' E 001°51'0 0.0
2018-May-24 23:00N 50°58' E 001°51'0 0.0
2018-May-24 22:31N 50°58' E 001°51'0 0.0
2018-May-24 22:01N 50°58' E 001°51'0 0.0
2018-May-24 21:30N 50°58' E 001°51'0 0.0
2018-May-24 21:01N 50°58' E 001°51'0 0.0
2018-May-24 20:30N 50°58' E 001°51'0 0.0
2018-May-24 20:01N 50°58' E 001°51'4 7.6
2018-May-24 19:30N 50°58' E 001°45'1019.2
2018-May-24 19:00N 51°01' E 001°30'9 6.0
2018-May-24 17:30N 51°07' E 001°20'4 8.4
2018-May-24 17:00N 51°06' E 001°26'1019.0
2018-May-24 16:30N 51°01' E 001°39'815.7
2018-May-24 16:01N 50°58' E 001°51'0 0.3
2018-May-24 15:30N 50°58' E 001°51'1 2.1
2018-May-24 15:00N 50°58' E 001°49'917.1
2018-May-24 14:31N 50°58' E 001°36'1019.1
2018-May-24 14:01N 51°04' E 001°25'3 0.6
2018-May-24 08:19N 51°07' E 001°22'618.1
2018-May-24 08:01N 51°04' E 001°29'918.0
2018-May-24 07:31N 50°60' E 001°42'611.9
2018-May-24 07:00N 50°58' E 001°51'0 0.0
2018-May-24 06:30N 50°58' E 001°51'0 0.0
2018-May-24 06:00N 50°58' E 001°51'0 0.1
2018-May-24 05:30N 50°58' E 001°51'816.2
2018-May-24 05:00N 50°59' E 001°38'1019.5
2018-May-24 04:30N 51°05' E 001°26'5 5.4
2018-May-24 03:39N 51°07' E 001°20'0 0.4
2018-May-24 03:19N 51°07' E 001°20'514.8
2018-May-24 03:01N 51°05' E 001°27'1020.0
2018-May-24 02:30N 51°01' E 001°41'713.9
2018-May-24 02:00N 50°58' E 001°51'0 0.1
2018-May-24 01:30N 50°58' E 001°51'815.1
2018-May-24 01:01N 50°58' E 001°39'918.9
2018-May-24 00:31N 51°04' E 001°27'5 3.2
2018-May-23 23:04N 51°07' E 001°22'118.6
2018-May-23 23:00N 51°07' E 001°24'918.6
2018-May-23 22:31N 51°02' E 001°36'917.8
2018-May-23 22:00N 50°58' E 001°49'1 2.7
2018-May-23 21:31N 50°58' E 001°51'0 0.0
2018-May-23 21:00N 50°58' E 001°51'510.8
2018-May-23 20:30N 50°58' E 001°43'1020.3
2018-May-23 20:00N 51°03' E 001°29'7 8.6
2018-May-23 19:10N 51°07' E 001°20'0 0.3
2018-May-23 18:43N 51°07' E 001°20'315.8
2018-May-23 18:30N 51°07' E 001°26'918.5
2018-May-23 18:00N 51°01' E 001°38'816.5
2018-May-23 17:30N 50°58' E 001°50'1 1.4
2018-May-23 17:00N 50°58' E 001°51'0 0.1
2018-May-23 16:31N 50°58' E 001°51'714.6
2018-May-23 16:01N 50°59' E 001°40'918.7
2018-May-23 15:31N 51°04' E 001°27'6 5.2
2018-May-23 14:26N 51°07' E 001°20'2 4.2
2018-May-23 14:00N 51°07' E 001°23'919.0
2018-May-23 13:30N 51°02' E 001°35'918.5
2018-May-23 13:00N 50°58' E 001°49'1 2.4
2018-May-23 12:30N 50°58' E 001°51'0 0.0
2018-May-23 12:00N 50°58' E 001°51'4 8.6
2018-May-23 11:31N 50°58' E 001°44'918.1
2018-May-23 11:00N 51°02' E 001°32'8 4.8
2018-May-23 09:22N 51°07' E 001°22'515.3
2018-May-23 09:00N 51°05' E 001°30'918.5
2018-May-23 08:30N 50°60' E 001°42'611.7
2018-May-23 08:00N 50°58' E 001°51'0 0.0
2018-May-23 07:30N 50°58' E 001°51'1 1.3
2018-May-23 07:01N 50°58' E 001°50'714.8
2018-May-23 06:30N 50°58' E 001°38'919.0
2018-May-23 06:00N 51°04' E 001°27'510.4
2018-May-23 05:30N 51°07' E 001°20'0 0.0
2018-May-23 04:58N 51°07' E 001°20'2 3.4
2018-May-23 04:30N 51°07' E 001°22'713.4
2018-May-23 04:00N 51°06' E 001°33'918.2
2018-May-23 03:30N 50°59' E 001°43'510.5
2018-May-23 03:01N 50°58' E 001°51'0 0.0
2018-May-23 02:30N 50°58' E 001°51'0 0.1
2018-May-23 02:00N 50°58' E 001°51'3 6.6
2018-May-23 01:30N 50°58' E 001°46'918.2
2018-May-23 01:00N 51°02' E 001°33'1016.1
2018-May-23 00:24N 51°07' E 001°20'0 0.0
2018-May-22 23:36N 51°07' E 001°20'0 0.6
2018-May-22 23:24N 51°07' E 001°20'615.6
2018-May-22 23:00N 51°05' E 001°29'918.8
2018-May-22 22:30N 50°60' E 001°41'713.1
2018-May-22 22:00N 50°58' E 001°51'0 0.0
2018-May-22 21:30N 50°58' E 001°51'0 0.1
2018-May-22 21:00N 50°58' E 001°51'714.7
2018-May-22 20:30N 50°59' E 001°40'1019.7
2018-May-22 20:00N 51°05' E 001°27'5 9.6
2018-May-22 19:27N 51°07' E 001°20'1 1.8
2018-May-22 18:45N 51°07' E 001°22'518.5
2018-May-22 18:30N 51°06' E 001°29'1019.0
2018-May-22 18:00N 50°60' E 001°41'713.3
2018-May-22 17:30N 50°58' E 001°51'0 0.0
2018-May-22 17:00N 50°58' E 001°51'4 7.3
2018-May-22 16:31N 50°58' E 001°45'1019.5
2018-May-22 16:01N 51°01' E 001°31'9 8.0
2018-May-22 14:53N 51°07' E 001°20'1 2.4
2018-May-22 14:26N 51°07' E 001°22'819.1
2018-May-22 14:00N 51°03' E 001°33'1019.3
2018-May-22 13:30N 50°58' E 001°46'3 6.1
2018-May-22 13:00N 50°58' E 001°51'0 0.0
2018-May-22 12:30N 50°58' E 001°51'2 3.1
2018-May-22 12:01N 50°58' E 001°49'814.7
2018-May-22 11:29N 50°57' E 001°37'714.2
2018-May-22 11:00N 51°01' E 001°27'811.8
2018-May-22 10:20N 51°07' E 001°20'0 0.0
2018-May-22 09:43N 51°07' E 001°20'1 4.0
2018-May-22 09:24N 51°07' E 001°22'616.3
2018-May-22 09:01N 51°04' E 001°31'816.6
2018-May-22 08:31N 50°59' E 001°42'612.0
2018-May-22 08:00N 50°58' E 001°51'0 0.0
2018-May-22 07:30N 50°58' E 001°51'2 3.3
2018-May-22 07:00N 50°58' E 001°48'917.0
2018-May-22 06:30N 50°60' E 001°35'917.5
2018-May-22 06:00N 51°05' E 001°24'3 3.0
2018-May-22 04:53N 51°07' E 001°20'0 0.2
2018-May-22 04:31N 51°07' E 001°20'2 3.7
2018-May-22 04:00N 51°07' E 001°23'816.3
2018-May-22 03:30N 51°03' E 001°35'816.5
2018-May-22 03:00N 50°58' E 001°45'4 7.6
2018-May-22 02:30N 50°58' E 001°51'0 0.0
2018-May-22 02:00N 50°58' E 001°51'0 0.1
2018-May-22 01:30N 50°58' E 001°51'714.4
2018-May-22 01:00N 50°59' E 001°40'917.1
2018-May-22 00:30N 51°03' E 001°28'6 8.5
2018-May-21 23:46N 51°07' E 001°20'0 0.0
2018-May-21 23:23N 51°07' E 001°20'3 9.2
2018-May-21 23:01N 51°06' E 001°25'918.8
2018-May-21 22:31N 51°01' E 001°38'917.2
2018-May-21 22:00N 50°58' E 001°51'0 0.4
2018-May-21 21:30N 50°58' E 001°51'2 3.8
2018-May-21 21:00N 50°58' E 001°48'917.9
2018-May-21 20:30N 51°01' E 001°34'1019.2
2018-May-21 20:00N 51°06' E 001°22'2 3.0
2018-May-21 19:27N 51°07' E 001°20'1 1.4
2018-May-21 19:00N 51°07' E 001°21'816.9
2018-May-21 18:30N 51°04' E 001°33'918.3
2018-May-21 18:01N 50°59' E 001°44'4 8.3
2018-May-21 17:30N 50°58' E 001°51'0 0.0
2018-May-21 17:00N 50°58' E 001°51'612.0
2018-May-21 16:31N 50°58' E 001°42'1019.4
2018-May-21 16:01N 51°04' E 001°29'6 5.0
2018-May-21 14:44N 51°07' E 001°20'2 9.9
2018-May-21 14:30N 51°07' E 001°24'918.5
2018-May-21 14:01N 51°03' E 001°37'916.9
2018-May-21 13:30N 50°58' E 001°48'2 3.5
2018-May-21 13:00N 50°58' E 001°51'0 0.0
2018-May-21 12:30N 50°58' E 001°51'2 3.6
2018-May-21 12:00N 50°58' E 001°48'816.5
2018-May-21 11:30N 50°58' E 001°35'1019.0
2018-May-21 11:00N 51°05' E 001°24'4 7.2
2018-May-21 10:31N 51°07' E 001°20'0 0.0
2018-May-21 10:00N 51°07' E 001°20'5 9.4
2018-May-21 09:31N 51°06' E 001°27'918.4
2018-May-21 09:01N 51°01' E 001°39'815.8
2018-May-21 08:31N 50°58' E 001°51'0 0.3
2018-May-21 08:01N 50°58' E 001°51'0 0.0
2018-May-21 07:30N 50°58' E 001°51'612.8
2018-May-21 07:00N 50°59' E 001°41'1019.0
2018-May-21 06:30N 51°03' E 001°27'612.1
2018-May-21 05:59N 51°07' E 001°20'0 0.0
2018-May-21 05:21N 51°07' E 001°20'0 0.0
2018-May-21 05:00N 51°07' E 001°20'0 0.0
2018-May-21 04:22N 51°07' E 001°20'1 2.7
2018-May-21 03:59N 51°07' E 001°22'817.6
2018-May-21 03:30N 51°03' E 001°33'917.5
2018-May-21 03:00N 50°58' E 001°45'4 7.8
2018-May-21 02:30N 50°58' E 001°51'0 0.0
2018-May-21 02:00N 50°58' E 001°51'0 0.0
2018-May-21 01:30N 50°58' E 001°51'4 7.2
2018-May-21 01:00N 50°58' E 001°45'816.4
2018-May-21 00:30N 51°01' E 001°33'816.4
2018-May-21 00:00N 51°06' E 001°23'2 4.0
2018-May-20 23:26N 51°07' E 001°20'0 0.2
2018-May-20 23:00N 51°07' E 001°20'612.8
2018-May-20 22:30N 51°05' E 001°29'815.9
2018-May-20 22:00N 50°60' E 001°39'815.2
2018-May-20 21:29N 50°58' E 001°51'0 0.4
2018-May-20 21:00N 50°58' E 001°51'0 0.1
2018-May-20 20:30N 50°58' E 001°51'612.4
2018-May-20 20:00N 50°58' E 001°42'917.8
2018-May-20 19:30N 51°02' E 001°29'813.8
2018-May-20 18:58N 51°07' E 001°20'0 0.0
2018-May-20 18:26N 51°07' E 001°20'2 5.6
2018-May-20 18:00N 51°07' E 001°24'918.3
2018-May-20 17:30N 51°02' E 001°36'917.1
2018-May-20 17:00N 50°58' E 001°49'1 3.0
2018-May-20 16:30N 50°58' E 001°51'0 0.1
2018-May-20 16:00N 50°58' E 001°51'918.0
2018-May-20 15:30N 50°59' E 001°37'1019.3
2018-May-20 15:00N 51°05' E 001°25'4 4.6
2018-May-20 14:08N 51°07' E 001°20'0 2.1
2018-May-20 13:58N 51°07' E 001°21'817.5
2018-May-20 13:30N 51°04' E 001°32'918.9
2018-May-20 13:00N 50°58' E 001°44'4 8.4
2018-May-20 12:30N 50°58' E 001°51'0 0.0
2018-May-20 12:00N 50°58' E 001°51'2 3.2
2018-May-20 11:30N 50°58' E 001°48'816.7
2018-May-20 11:01N 50°60' E 001°35'918.6
2018-May-20 10:30N 51°06' E 001°24'3 5.5
2018-May-20 09:58N 51°07' E 001°20'0 0.0
2018-May-20 09:26N 51°07' E 001°20'511.9
2018-May-20 09:00N 51°04' E 001°27'1019.4
2018-May-20 08:30N 51°00' E 001°41'713.6
2018-May-20 08:00N 50°58' E 001°51'0 0.0
2018-May-20 07:30N 50°58' E 001°51'0 0.0
2018-May-20 07:00N 50°58' E 001°51'713.0
2018-May-20 06:30N 50°58' E 001°41'1019.3
2018-May-20 06:00N 51°04' E 001°28'6 9.6
2018-May-20 05:22N 51°07' E 001°20'9 6.7
2018-May-20 04:00N 51°03' E 001°33'917.8
2018-May-20 03:30N 50°58' E 001°45'4 8.1
2018-May-20 03:00N 50°58' E 001°51'0 0.0
2018-May-20 02:30N 50°58' E 001°51'2 3.6
2018-May-20 02:01N 50°58' E 001°48'1019.9
2018-May-20 01:31N 51°01' E 001°33'1010.1
2018-May-20 00:28N 51°07' E 001°20'1 1.2
2018-May-20 00:01N 51°07' E 001°21'919.0
2018-May-19 23:31N 51°03' E 001°34'918.9
2018-May-19 23:00N 50°58' E 001°47'3 5.1
2018-May-19 22:30N 50°58' E 001°51'0 0.0
2018-May-19 22:00N 50°58' E 001°51'0 0.4
2018-May-19 21:30N 50°58' E 001°51'714.9
2018-May-19 21:00N 50°59' E 001°39'918.4
2018-May-19 20:30N 51°05' E 001°27'4 3.1
2018-May-19 19:09N 51°07' E 001°22'318.9
2018-May-19 19:00N 51°06' E 001°26'1019.2
2018-May-19 18:31N 51°01' E 001°39'815.9
2018-May-19 18:00N 50°58' E 001°51'0 0.3
2018-May-19 17:30N 50°58' E 001°51'1 1.7
2018-May-19 17:00N 50°58' E 001°50'918.3
2018-May-19 16:31N 51°00' E 001°36'918.9
2018-May-19 16:01N 51°06' E 001°24'1 1.0
2018-May-19 14:42N 51°07' E 001°22'317.4
2018-May-19 14:31N 51°07' E 001°27'918.5
2018-May-19 14:00N 51°01' E 001°39'714.0
2018-May-19 13:31N 50°58' E 001°49'1 2.5
2018-May-19 13:00N 50°58' E 001°51'0 0.0
2018-May-19 12:30N 50°58' E 001°51'4 7.0
2018-May-19 12:00N 50°58' E 001°45'816.0
2018-May-19 11:31N 51°01' E 001°34'816.0
2018-May-19 11:01N 51°06' E 001°24'3 4.5
2018-May-19 10:23N 51°07' E 001°20'0 0.5
2018-May-19 09:48N 51°07' E 001°21'516.5
2018-May-19 09:30N 51°06' E 001°28'816.8
2018-May-19 09:00N 51°01' E 001°39'815.5
2018-May-19 08:30N 50°58' E 001°50'0 0.9
2018-May-19 08:00N 50°58' E 001°51'0 0.0
2018-May-19 07:29N 50°58' E 001°51'612.1
2018-May-19 07:00N 50°58' E 001°42'815.9
2018-May-19 06:30N 51°01' E 001°30'911.7
2018-May-19 05:45N 51°07' E 001°20'0 0.0
2018-May-19 05:16N 51°07' E 001°20'1 2.9
2018-May-19 04:49N 51°07' E 001°22'516.0
2018-May-19 04:30N 51°05' E 001°29'816.3
2018-May-19 04:00N 51°01' E 001°40'714.0
2018-May-19 03:31N 50°58' E 001°51'0 0.7
2018-May-19 03:01N 50°58' E 001°51'4 8.6
2018-May-19 02:30N 50°58' E 001°44'1019.4
2018-May-19 02:00N 51°01' E 001°30'7 4.9
2018-May-19 00:31N 51°07' E 001°23'918.1
2018-May-19 00:01N 51°02' E 001°35'917.4
2018-May-18 23:30N 50°58' E 001°47'2 4.9
2018-May-18 23:00N 50°58' E 001°51'0 0.0
2018-May-18 22:30N 50°58' E 001°51'611.3
2018-May-18 22:01N 50°58' E 001°42'917.2
2018-May-18 21:30N 51°03' E 001°31'7 4.1
2018-May-18 19:54N 51°07' E 001°22'718.8
2018-May-18 19:30N 51°03' E 001°32'918.9
2018-May-18 19:00N 50°58' E 001°45'4 7.7
2018-May-18 18:30N 50°58' E 001°51'0 0.0
2018-May-18 18:01N 50°58' E 001°51'5 9.1
2018-May-18 17:30N 50°58' E 001°44'917.8
2018-May-18 17:00N 51°03' E 001°31'7 4.6
2018-May-18 15:27N 51°07' E 001°23'817.2
2018-May-18 15:00N 51°03' E 001°33'817.0
2018-May-18 14:30N 50°59' E 001°44'4 8.5
2018-May-18 14:00N 50°58' E 001°51'0 0.0
2018-May-18 13:30N 50°58' E 001°51'5 9.5
2018-May-18 13:00N 50°58' E 001°43'918.9
2018-May-18 12:30N 51°02' E 001°30'8 7.9
2018-May-18 11:28N 51°07' E 001°20'1 1.9
2018-May-18 10:51N 51°07' E 001°22'618.2
2018-May-18 10:30N 51°04' E 001°30'918.6
2018-May-18 10:00N 50°59' E 001°43'510.2
2018-May-18 09:30N 50°58' E 001°51'0 0.0
2018-May-18 09:00N 50°58' E 001°51'1 2.9
2018-May-18 08:31N 50°58' E 001°49'815.2
2018-May-18 08:01N 50°59' E 001°37'917.4
2018-May-18 07:31N 51°04' E 001°26'5 4.1
2018-May-18 06:22N 51°07' E 001°20'1 2.2
2018-May-18 05:54N 51°07' E 001°22'717.4
2018-May-18 05:30N 51°04' E 001°31'917.8
2018-May-18 05:01N 50°59' E 001°43'510.0
2018-May-18 04:30N 50°58' E 001°51'0 0.0
2018-May-18 04:00N 50°58' E 001°51'0 0.1
2018-May-18 03:30N 50°58' E 001°51'815.9
2018-May-18 03:00N 50°58' E 001°38'917.1
2018-May-18 02:30N 51°04' E 001°28'6 4.8
2018-May-18 01:11N 51°07' E 001°20'2 4.9
2018-May-18 00:52N 51°07' E 001°22'617.3
2018-May-18 00:31N 51°04' E 001°31'917.0
2018-May-18 00:00N 50°59' E 001°42'611.1
2018-May-17 23:30N 50°58' E 001°51'0 0.0
2018-May-17 23:00N 50°58' E 001°51'2 3.9
2018-May-17 22:30N 50°58' E 001°48'816.4
2018-May-17 22:00N 50°59' E 001°35'917.4
2018-May-17 21:30N 51°05' E 001°24'4 6.7
2018-May-17 20:56N 51°07' E 001°20'0 0.0
2018-May-17 20:20N 51°07' E 001°20'1 2.0
2018-May-17 19:47N 51°07' E 001°22'517.4
2018-May-17 19:30N 51°04' E 001°27'918.5
2018-May-17 19:01N 50°59' E 001°40'713.9
2018-May-17 18:31N 50°58' E 001°51'0 0.0
2018-May-17 18:01N 50°58' E 001°51'0 0.0
2018-May-17 17:30N 50°58' E 001°51'510.9
2018-May-17 17:00N 50°58' E 001°42'816.8
2018-May-17 16:31N 51°02' E 001°31'8 6.4
2018-May-17 15:11N 51°07' E 001°20'0 1.1
2018-May-17 14:51N 51°07' E 001°20'412.3
2018-May-17 14:30N 51°06' E 001°26'917.4
2018-May-17 14:00N 51°01' E 001°38'815.3
2018-May-17 13:31N 50°58' E 001°50'1 2.0
2018-May-17 13:00N 50°58' E 001°51'0 0.0
2018-May-17 12:30N 50°58' E 001°51'510.1
2018-May-17 12:01N 50°58' E 001°43'918.7
2018-May-17 11:30N 51°02' E 001°30'8 5.4
2018-May-17 10:05N 51°07' E 001°20'  
Track history (hours):
 
Tides and Currents Weather Stations Pressure Air Temp Water Temp Dewpoint Dewpoint Depression Visibility Wind Speed Wind Dir Waves Ship Positions

Pride Of Burgundy

Operator: P & O Ferries

Last reported at 2018-May-27 10:01 UTC. Time now 2018-May-27 10:02 UTC.
Position N 50°58' E 001°43'.

Length 180 m; draft 6.2 m.

Type: Passenger vessel. MMSI: 232001470.

Date/timePositionNaut miles runAvg speedWind from/ knotsBaromVisibWave heightAir tempDewpointWater temp
2018-May-27 10:01N 50°58' E 001°43'1020.3
2018-May-27 09:31N 51°03' E 001°29'6 3.9
2018-May-27 08:01N 51°07' E 001°22'015.9
2018-May-27 08:00N 51°07' E 001°22'815.4
2018-May-27 07:30N 51°04' E 001°33'816.1
2018-May-27 07:00N 50°59' E 001°43'5 9.6
2018-May-27 06:30N 50°58' E 001°51'0 0.0
2018-May-27 06:00N 50°58' E 001°51'0 0.0
2018-May-27 05:30N 50°58' E 001°51'0 0.0
2018-May-27 05:01N 50°58' E 001°51'0 0.0
2018-May-27 04:31N 50°58' E 001°51'0 0.0
2018-May-27 04:00N 50°58' E 001°51'0 0.0
2018-May-27 03:30N 50°58' E 001°51'0 0.0
2018-May-27 03:00N 50°58' E 001°51'0 0.0
2018-May-27 02:30N 50°58' E 001°51'0 0.0
2018-May-27 02:00N 50°58' E 001°51'0 0.0
2018-May-27 01:30N 50°58' E 001°51'0 0.0
2018-May-27 01:00N 50°58' E 001°51'0 0.0
2018-May-27 00:30N 50°58' E 001°51'0 0.0
2018-May-27 00:00N 50°58' E 001°51'0 0.0
2018-May-26 23:30N 50°58' E 001°51'0 0.0
2018-May-26 23:00N 50°58' E 001°51'0 0.0
2018-May-26 22:30N 50°58' E 001°51'0 0.0
2018-May-26 22:00N 50°58' E 001°51'0 0.0
2018-May-26 21:30N 50°58' E 001°51'0 0.0
2018-May-26 21:00N 50°58' E 001°51'0 0.0
2018-May-26 20:30N 50°58' E 001°51'0 0.0
2018-May-26 20:00N 50°58' E 001°51'4 7.2
2018-May-26 19:30N 50°58' E 001°45'815.8
2018-May-26 19:00N 50°60' E 001°33'816.6
2018-May-26 18:30N 51°06' E 001°24'3 2.9
2018-May-26 17:27N 51°07' E 001°20'3 7.0
2018-May-26 17:01N 51°07' E 001°25'917.5
2018-May-26 16:30N 51°02' E 001°36'918.6
2018-May-26 16:01N 50°58' E 001°50'1 1.4
2018-May-26 15:30N 50°58' E 001°51'1 2.9
2018-May-26 15:00N 50°58' E 001°49'815.6
2018-May-26 14:30N 50°60' E 001°37'1019.2
2018-May-26 14:00N 51°06' E 001°24'3 5.0
2018-May-26 13:22N 51°07' E 001°20'0 0.1
2018-May-26 12:47N 51°07' E 001°20'415.2
2018-May-26 12:30N 51°06' E 001°27'1017.7
2018-May-26 11:56N 51°00' E 001°39'716.4
2018-May-26 11:30N 50°58' E 001°50'1 1.2
2018-May-26 11:01N 50°58' E 001°51'0 0.0
2018-May-26 10:30N 50°58' E 001°51'511.0
2018-May-26 10:01N 50°58' E 001°42'1019.5
2018-May-26 09:30N 51°03' E 001°29'6 3.5
2018-May-26 07:52N 51°07' E 001°22'718.9
2018-May-26 07:31N 51°05' E 001°32'918.1
2018-May-26 07:01N 50°59' E 001°43'5 3.0
2018-May-26 05:31N 50°58' E 001°50'917.0
2018-May-26 05:00N 50°59' E 001°37'1019.1
2018-May-26 04:31N 51°06' E 001°26'3 1.5
2018-May-26 02:52N 51°07' E 001°22'719.6
2018-May-26 02:30N 51°03' E 001°32'1019.7
2018-May-26 02:00N 50°58' E 001°45'4 7.4
2018-May-26 01:26N 50°58' E 001°52'0 0.0
2018-May-26 01:00N 50°58' E 001°52'0 0.0
2018-May-26 00:30N 50°58' E 001°52'0 0.0
2018-May-26 00:00N 50°58' E 001°52'0 0.0
2018-May-25 23:30N 50°58' E 001°52'0 0.0
2018-May-25 22:42N 50°58' E 001°52'0 0.0
2018-May-25 22:27N 50°58' E 001°52'0 0.0
2018-May-25 22:00N 50°58' E 001°52'0 0.0
2018-May-25 21:30N 50°58' E 001°52'0 0.0
2018-May-25 20:45N 50°58' E 001°52'0 0.0
2018-May-25 20:29N 50°58' E 001°52'0 0.0
2018-May-25 19:59N 50°58' E 001°52'0 0.1
2018-May-25 19:30N 50°58' E 001°52'816.1
2018-May-25 19:01N 50°59' E 001°39'1019.5
2018-May-25 18:30N 51°04' E 001°26'5 4.1
2018-May-25 17:21N 51°07' E 001°20'412.4
2018-May-25 17:00N 51°05' E 001°26'1020.1
2018-May-25 16:31N 50°60' E 001°39'815.0
2018-May-25 16:00N 50°58' E 001°51'0 0.0
2018-May-25 15:30N 50°58' E 001°51'510.9
2018-May-25 15:00N 50°58' E 001°42'815.5
2018-May-25 14:30N 51°01' E 001°31'815.8
2018-May-25 14:00N 51°07' E 001°23'2 1.3
2018-May-25 12:44N 51°07' E 001°20'210.1
2018-May-25 12:30N 51°07' E 001°24'1019.1
2018-May-25 12:00N 51°02' E 001°36'918.1
2018-May-25 11:30N 50°58' E 001°50'1 1.9
2018-May-25 11:00N 50°58' E 001°51'0 0.0
2018-May-25 10:30N 50°58' E 001°51'613.0
2018-May-25 10:00N 50°59' E 001°41'1019.5
2018-May-25 09:30N 51°04' E 001°28'6 4.9
2018-May-25 08:17N 51°07' E 001°20'1 4.2
2018-May-25 08:00N 51°07' E 001°22'816.1
2018-May-25 07:30N 51°06' E 001°34'918.0
2018-May-25 07:00N 50°59' E 001°43'510.1
2018-May-25 06:30N 50°58' E 001°51'0 0.0
2018-May-25 06:01N 50°58' E 001°51'1 1.6
2018-May-25 05:30N 50°59' E 001°50'816.4
2018-May-25 05:00N 50°60' E 001°37'918.4
2018-May-25 04:30N 51°05' E 001°25'4 2.7
2018-May-25 03:06N 51°07' E 001°20'1 9.0
2018-May-25 02:56N 51°07' E 001°23'817.8
2018-May-25 02:30N 51°05' E 001°34'918.6
2018-May-25 02:00N 50°58' E 001°44'4 8.4
2018-May-25 01:30N 50°58' E 001°51'0 0.0
2018-May-25 01:01N 50°58' E 001°51'0 0.0
2018-May-25 00:31N 50°58' E 001°51'0 0.0
2018-May-25 00:01N 50°58' E 001°51'0 0.0
2018-May-24 23:30N 50°58' E 001°51'0 0.0
2018-May-24 23:00N 50°58' E 001°51'0 0.0
2018-May-24 22:31N 50°58' E 001°51'0 0.0
2018-May-24 22:01N 50°58' E 001°51'0 0.0
2018-May-24 21:30N 50°58' E 001°51'0 0.0
2018-May-24 21:01N 50°58' E 001°51'0 0.0
2018-May-24 20:30N 50°58' E 001°51'0 0.0
2018-May-24 20:01N 50°58' E 001°51'4 7.6
2018-May-24 19:30N 50°58' E 001°45'1019.2
2018-May-24 19:00N 51°01' E 001°30'9 6.0
2018-May-24 17:30N 51°07' E 001°20'4 8.4
2018-May-24 17:00N 51°06' E 001°26'1019.0
2018-May-24 16:30N 51°01' E 001°39'815.7
2018-May-24 16:01N 50°58' E 001°51'0 0.3
2018-May-24 15:30N 50°58' E 001°51'1 2.1
2018-May-24 15:00N 50°58' E 001°49'917.1
2018-May-24 14:31N 50°58' E 001°36'1019.1
2018-May-24 14:01N 51°04' E 001°25'3 0.6
2018-May-24 08:19N 51°07' E 001°22'618.1
2018-May-24 08:01N 51°04' E 001°29'918.0
2018-May-24 07:31N 50°60' E 001°42'611.9
2018-May-24 07:00N 50°58' E 001°51'0 0.0
2018-May-24 06:30N 50°58' E 001°51'0 0.0
2018-May-24 06:00N 50°58' E 001°51'0 0.1
2018-May-24 05:30N 50°58' E 001°51'816.2
2018-May-24 05:00N 50°59' E 001°38'1019.5
2018-May-24 04:30N 51°05' E 001°26'5 5.4
2018-May-24 03:39N 51°07' E 001°20'0 0.4
2018-May-24 03:19N 51°07' E 001°20'514.8
2018-May-24 03:01N 51°05' E 001°27'1020.0
2018-May-24 02:30N 51°01' E 001°41'713.9
2018-May-24 02:00N 50°58' E 001°51'0 0.1
2018-May-24 01:30N 50°58' E 001°51'815.1
2018-May-24 01:01N 50°58' E 001°39'918.9
2018-May-24 00:31N 51°04' E 001°27'5 3.2
2018-May-23 23:04N 51°07' E 001°22'118.6
2018-May-23 23:00N 51°07' E 001°24'918.6
2018-May-23 22:31N 51°02' E 001°36'917.8
2018-May-23 22:00N 50°58' E 001°49'1 2.7
2018-May-23 21:31N 50°58' E 001°51'0 0.0
2018-May-23 21:00N 50°58' E 001°51'510.8
2018-May-23 20:30N 50°58' E 001°43'1020.3
2018-May-23 20:00N 51°03' E 001°29'7 8.6
2018-May-23 19:10N 51°07' E 001°20'0 0.3
2018-May-23 18:43N 51°07' E 001°20'315.8
2018-May-23 18:30N 51°07' E 001°26'918.5
2018-May-23 18:00N 51°01' E 001°38'816.5
2018-May-23 17:30N 50°58' E 001°50'1 1.4
2018-May-23 17:00N 50°58' E 001°51'0 0.1
2018-May-23 16:31N 50°58' E 001°51'714.6
2018-May-23 16:01N 50°59' E 001°40'918.7
2018-May-23 15:31N 51°04' E 001°27'6 5.2
2018-May-23 14:26N 51°07' E 001°20'2 4.2
2018-May-23 14:00N 51°07' E 001°23'919.0
2018-May-23 13:30N 51°02' E 001°35'918.5
2018-May-23 13:00N 50°58' E 001°49'1 2.4
2018-May-23 12:30N 50°58' E 001°51'0 0.0
2018-May-23 12:00N 50°58' E 001°51'4 8.6
2018-May-23 11:31N 50°58' E 001°44'918.1
2018-May-23 11:00N 51°02' E 001°32'8 4.8
2018-May-23 09:22N 51°07' E 001°22'515.3
2018-May-23 09:00N 51°05' E 001°30'918.5
2018-May-23 08:30N 50°60' E 001°42'611.7
2018-May-23 08:00N 50°58' E 001°51'0 0.0
2018-May-23 07:30N 50°58' E 001°51'1 1.3
2018-May-23 07:01N 50°58' E 001°50'714.8
2018-May-23 06:30N 50°58' E 001°38'919.0
2018-May-23 06:00N 51°04' E 001°27'510.4
2018-May-23 05:30N 51°07' E 001°20'0 0.0
2018-May-23 04:58N 51°07' E 001°20'2 3.4
2018-May-23 04:30N 51°07' E 001°22'713.4
2018-May-23 04:00N 51°06' E 001°33'918.2
2018-May-23 03:30N 50°59' E 001°43'510.5
2018-May-23 03:01N 50°58' E 001°51'0 0.0
2018-May-23 02:30N 50°58' E 001°51'0 0.1
2018-May-23 02:00N 50°58' E 001°51'3 6.6
2018-May-23 01:30N 50°58' E 001°46'918.2
2018-May-23 01:00N 51°02' E 001°33'1016.1
2018-May-23 00:24N 51°07' E 001°20'0 0.0
2018-May-22 23:36N 51°07' E 001°20'0 0.6
2018-May-22 23:24N 51°07' E 001°20'615.6
2018-May-22 23:00N 51°05' E 001°29'918.8
2018-May-22 22:30N 50°60' E 001°41'713.1
2018-May-22 22:00N 50°58' E 001°51'0 0.0
2018-May-22 21:30N 50°58' E 001°51'0 0.1
2018-May-22 21:00N 50°58' E 001°51'714.7
2018-May-22 20:30N 50°59' E 001°40'1019.7
2018-May-22 20:00N 51°05' E 001°27'5 9.6
2018-May-22 19:27N 51°07' E 001°20'1 1.8
2018-May-22 18:45N 51°07' E 001°22'518.5
2018-May-22 18:30N 51°06' E 001°29'1019.0
2018-May-22 18:00N 50°60' E 001°41'713.3
2018-May-22 17:30N 50°58' E 001°51'0 0.0
2018-May-22 17:00N 50°58' E 001°51'4 7.3
2018-May-22 16:31N 50°58' E 001°45'1019.5
2018-May-22 16:01N 51°01' E 001°31'9 8.0
2018-May-22 14:53N 51°07' E 001°20'1 2.4
2018-May-22 14:26N 51°07' E 001°22'819.1
2018-May-22 14:00N 51°03' E 001°33'1019.3
2018-May-22 13:30N 50°58' E 001°46'3 6.1
2018-May-22 13:00N 50°58' E 001°51'0 0.0
2018-May-22 12:30N 50°58' E 001°51'2 3.1
2018-May-22 12:01N 50°58' E 001°49'814.7
2018-May-22 11:29N 50°57' E 001°37'714.2
2018-May-22 11:00N 51°01' E 001°27'811.8
2018-May-22 10:20N 51°07' E 001°20'0 0.0
2018-May-22 09:43N 51°07' E 001°20'1 4.0
2018-May-22 09:24N 51°07' E 001°22'616.3
2018-May-22 09:01N 51°04' E 001°31'816.6
2018-May-22 08:31N 50°59' E 001°42'612.0
2018-May-22 08:00N 50°58' E 001°51'0 0.0
2018-May-22 07:30N 50°58' E 001°51'2 3.3
2018-May-22 07:00N 50°58' E 001°48'917.0
2018-May-22 06:30N 50°60' E 001°35'917.5
2018-May-22 06:00N 51°05' E 001°24'3 3.0
2018-May-22 04:53N 51°07' E 001°20'0 0.2
2018-May-22 04:31N 51°07' E 001°20'2 3.7
2018-May-22 04:00N 51°07' E 001°23'816.3
2018-May-22 03:30N 51°03' E 001°35'816.5
2018-May-22 03:00N 50°58' E 001°45'4 7.6
2018-May-22 02:30N 50°58' E 001°51'0 0.0
2018-May-22 02:00N 50°58' E 001°51'0 0.1
2018-May-22 01:30N 50°58' E 001°51'714.4
2018-May-22 01:00N 50°59' E 001°40'917.1
2018-May-22 00:30N 51°03' E 001°28'6 8.5
2018-May-21 23:46N 51°07' E 001°20'0 0.0
2018-May-21 23:23N 51°07' E 001°20'3 9.2
2018-May-21 23:01N 51°06' E 001°25'918.8
2018-May-21 22:31N 51°01' E 001°38'917.2
2018-May-21 22:00N 50°58' E 001°51'0 0.4
2018-May-21 21:30N 50°58' E 001°51'2 3.8
2018-May-21 21:00N 50°58' E 001°48'917.9
2018-May-21 20:30N 51°01' E 001°34'1019.2
2018-May-21 20:00N 51°06' E 001°22'2 3.0
2018-May-21 19:27N 51°07' E 001°20'1 1.4
2018-May-21 19:00N 51°07' E 001°21'816.9
2018-May-21 18:30N 51°04' E 001°33'918.3
2018-May-21 18:01N 50°59' E 001°44'4 8.3
2018-May-21 17:30N 50°58' E 001°51'0 0.0
2018-May-21 17:00N 50°58' E 001°51'612.0
2018-May-21 16:31N 50°58' E 001°42'1019.4
2018-May-21 16:01N 51°04' E 001°29'6 5.0
2018-May-21 14:44N 51°07' E 001°20'2 9.9
2018-May-21 14:30N 51°07' E 001°24'918.5
2018-May-21 14:01N 51°03' E 001°37'916.9
2018-May-21 13:30N 50°58' E 001°48'2 3.5
2018-May-21 13:00N 50°58' E 001°51'0 0.0
2018-May-21 12:30N 50°58' E 001°51'2 3.6
2018-May-21 12:00N 50°58' E 001°48'816.5
2018-May-21 11:30N 50°58' E 001°35'1019.0
2018-May-21 11:00N 51°05' E 001°24'4 7.2
2018-May-21 10:31N 51°07' E 001°20'0 0.0
2018-May-21 10:00N 51°07' E 001°20'5 9.4
2018-May-21 09:31N 51°06' E 001°27'918.4
2018-May-21 09:01N 51°01' E 001°39'815.8
2018-May-21 08:31N 50°58' E 001°51'0 0.3
2018-May-21 08:01N 50°58' E 001°51'0 0.0
2018-May-21 07:30N 50°58' E 001°51'612.8
2018-May-21 07:00N 50°59' E 001°41'1019.0
2018-May-21 06:30N 51°03' E 001°27'612.1
2018-May-21 05:59N 51°07' E 001°20'0 0.0
2018-May-21 05:21N 51°07' E 001°20'0 0.0
2018-May-21 05:00N 51°07' E 001°20'0 0.0
2018-May-21 04:22N 51°07' E 001°20'1 2.7
2018-May-21 03:59N 51°07' E 001°22'817.6
2018-May-21 03:30N 51°03' E 001°33'917.5
2018-May-21 03:00N 50°58' E 001°45'4 7.8
2018-May-21 02:30N 50°58' E 001°51'0 0.0
2018-May-21 02:00N 50°58' E 001°51'0 0.0
2018-May-21 01:30N 50°58' E 001°51'4 7.2
2018-May-21 01:00N 50°58' E 001°45'816.4
2018-May-21 00:30N 51°01' E 001°33'816.4
2018-May-21 00:00N 51°06' E 001°23'2 4.0
2018-May-20 23:26N 51°07' E 001°20'0 0.2
2018-May-20 23:00N 51°07' E 001°20'612.8
2018-May-20 22:30N 51°05' E 001°29'815.9
2018-May-20 22:00N 50°60' E 001°39'815.2
2018-May-20 21:29N 50°58' E 001°51'0 0.4
2018-May-20 21:00N 50°58' E 001°51'0 0.1
2018-May-20 20:30N 50°58' E 001°51'612.4
2018-May-20 20:00N 50°58' E 001°42'917.8
2018-May-20 19:30N 51°02' E 001°29'813.8
2018-May-20 18:58N 51°07' E 001°20'0 0.0
2018-May-20 18:26N 51°07' E 001°20'2 5.6
2018-May-20 18:00N 51°07' E 001°24'918.3
2018-May-20 17:30N 51°02' E 001°36'917.1
2018-May-20 17:00N 50°58' E 001°49'1 3.0
2018-May-20 16:30N 50°58' E 001°51'0 0.1
2018-May-20 16:00N 50°58' E 001°51'918.0
2018-May-20 15:30N 50°59' E 001°37'1019.3
2018-May-20 15:00N 51°05' E 001°25'4 4.6
2018-May-20 14:08N 51°07' E 001°20'0 2.1
2018-May-20 13:58N 51°07' E 001°21'817.5
2018-May-20 13:30N 51°04' E 001°32'918.9
2018-May-20 13:00N 50°58' E 001°44'4 8.4
2018-May-20 12:30N 50°58' E 001°51'0 0.0
2018-May-20 12:00N 50°58' E 001°51'2 3.2
2018-May-20 11:30N 50°58' E 001°48'816.7
2018-May-20 11:01N 50°60' E 001°35'918.6
2018-May-20 10:30N 51°06' E 001°24'3 5.5
2018-May-20 09:58N 51°07' E 001°20'0 0.0
2018-May-20 09:26N 51°07' E 001°20'511.9
2018-May-20 09:00N 51°04' E 001°27'1019.4
2018-May-20 08:30N 51°00' E 001°41'713.6
2018-May-20 08:00N 50°58' E 001°51'0 0.0
2018-May-20 07:30N 50°58' E 001°51'0 0.0
2018-May-20 07:00N 50°58' E 001°51'713.0
2018-May-20 06:30N 50°58' E 001°41'1019.3
2018-May-20 06:00N 51°04' E 001°28'6 9.6
2018-May-20 05:22N 51°07' E 001°20'9 6.7
2018-May-20 04:00N 51°03' E 001°33'917.8
2018-May-20 03:30N 50°58' E 001°45'4 8.1
2018-May-20 03:00N 50°58' E 001°51'0 0.0
2018-May-20 02:30N 50°58' E 001°51'2 3.6
2018-May-20 02:01N 50°58' E 001°48'1019.9
2018-May-20 01:31N 51°01' E 001°33'1010.1
2018-May-20 00:28N 51°07' E 001°20'1 1.2
2018-May-20 00:01N 51°07' E 001°21'919.0
2018-May-19 23:31N 51°03' E 001°34'918.9
2018-May-19 23:00N 50°58' E 001°47'3 5.1
2018-May-19 22:30N 50°58' E 001°51'0 0.0
2018-May-19 22:00N 50°58' E 001°51'0 0.4
2018-May-19 21:30N 50°58' E 001°51'714.9
2018-May-19 21:00N 50°59' E 001°39'918.4
2018-May-19 20:30N 51°05' E 001°27'4 3.1
2018-May-19 19:09N 51°07' E 001°22'318.9
2018-May-19 19:00N 51°06' E 001°26'1019.2
2018-May-19 18:31N 51°01' E 001°39'815.9
2018-May-19 18:00N 50°58' E 001°51'0 0.3
2018-May-19 17:30N 50°58' E 001°51'1 1.7
2018-May-19 17:00N 50°58' E 001°50'918.3
2018-May-19 16:31N 51°00' E 001°36'918.9
2018-May-19 16:01N 51°06' E 001°24'1 1.0
2018-May-19 14:42N 51°07' E 001°22'317.4
2018-May-19 14:31N 51°07' E 001°27'918.5
2018-May-19 14:00N 51°01' E 001°39'714.0
2018-May-19 13:31N 50°58' E 001°49'1 2.5
2018-May-19 13:00N 50°58' E 001°51'0 0.0
2018-May-19 12:30N 50°58' E 001°51'4 7.0
2018-May-19 12:00N 50°58' E 001°45'816.0
2018-May-19 11:31N 51°01' E 001°34'816.0
2018-May-19 11:01N 51°06' E 001°24'3 4.5
2018-May-19 10:23N 51°07' E 001°20'0 0.5
2018-May-19 09:48N 51°07' E 001°21'516.5
2018-May-19 09:30N 51°06' E 001°28'816.8
2018-May-19 09:00N 51°01' E 001°39'815.5
2018-May-19 08:30N 50°58' E 001°50'0 0.9
2018-May-19 08:00N 50°58' E 001°51'0 0.0
2018-May-19 07:29N 50°58' E 001°51'612.1
2018-May-19 07:00N 50°58' E 001°42'815.9
2018-May-19 06:30N 51°01' E 001°30'911.7
2018-May-19 05:45N 51°07' E 001°20'0 0.0
2018-May-19 05:16N 51°07' E 001°20'1 2.9
2018-May-19 04:49N 51°07' E 001°22'516.0
2018-May-19 04:30N 51°05' E 001°29'816.3
2018-May-19 04:00N 51°01' E 001°40'714.0
2018-May-19 03:31N 50°58' E 001°51'0 0.7
2018-May-19 03:01N 50°58' E 001°51'4 8.6
2018-May-19 02:30N 50°58' E 001°44'1019.4
2018-May-19 02:00N 51°01' E 001°30'7 4.9
2018-May-19 00:31N 51°07' E 001°23'918.1
2018-May-19 00:01N 51°02' E 001°35'917.4
2018-May-18 23:30N 50°58' E 001°47'2 4.9
2018-May-18 23:00N 50°58' E 001°51'0 0.0
2018-May-18 22:30N 50°58' E 001°51'611.3
2018-May-18 22:01N 50°58' E 001°42'917.2
2018-May-18 21:30N 51°03' E 001°31'7 4.1
2018-May-18 19:54N 51°07' E 001°22'718.8
2018-May-18 19:30N 51°03' E 001°32'918.9
2018-May-18 19:00N 50°58' E 001°45'4 7.7
2018-May-18 18:30N 50°58' E 001°51'0 0.0
2018-May-18 18:01N 50°58' E 001°51'5 9.1
2018-May-18 17:30N 50°58' E 001°44'917.8
2018-May-18 17:00N 51°03' E 001°31'7 4.6
2018-May-18 15:27N 51°07' E 001°23'817.2
2018-May-18 15:00N 51°03' E 001°33'817.0
2018-May-18 14:30N 50°59' E 001°44'4 8.5
2018-May-18 14:00N 50°58' E 001°51'0 0.0
2018-May-18 13:30N 50°58' E 001°51'5 9.5
2018-May-18 13:00N 50°58' E 001°43'918.9
2018-May-18 12:30N 51°02' E 001°30'8 7.9
2018-May-18 11:28N 51°07' E 001°20'1 1.9
2018-May-18 10:51N 51°07' E 001°22'618.2
2018-May-18 10:30N 51°04' E 001°30'918.6
2018-May-18 10:00N 50°59' E 001°43'510.2
2018-May-18 09:30N 50°58' E 001°51'0 0.0
2018-May-18 09:00N 50°58' E 001°51'1 2.9
2018-May-18 08:31N 50°58' E 001°49'815.2
2018-May-18 08:01N 50°59' E 001°37'917.4
2018-May-18 07:31N 51°04' E 001°26'5 4.1
2018-May-18 06:22N 51°07' E 001°20'1 2.2
2018-May-18 05:54N 51°07' E 001°22'717.4
2018-May-18 05:30N 51°04' E 001°31'917.8
2018-May-18 05:01N 50°59' E 001°43'510.0
2018-May-18 04:30N 50°58' E 001°51'0 0.0
2018-May-18 04:00N 50°58' E 001°51'0 0.1
2018-May-18 03:30N 50°58' E 001°51'815.9
2018-May-18 03:00N 50°58' E 001°38'917.1
2018-May-18 02:30N 51°04' E 001°28'6 4.8
2018-May-18 01:11N 51°07' E 001°20'2 4.9
2018-May-18 00:52N 51°07' E 001°22'617.3
2018-May-18 00:31N 51°04' E 001°31'917.0
2018-May-18 00:00N 50°59' E 001°42'611.1
2018-May-17 23:30N 50°58' E 001°51'0 0.0
2018-May-17 23:00N 50°58' E 001°51'2 3.9
2018-May-17 22:30N 50°58' E 001°48'816.4
2018-May-17 22:00N 50°59' E 001°35'917.4
2018-May-17 21:30N 51°05' E 001°24'4 6.7
2018-May-17 20:56N 51°07' E 001°20'0 0.0
2018-May-17 20:20N 51°07' E 001°20'1 2.0
2018-May-17 19:47N 51°07' E 001°22'517.4
2018-May-17 19:30N 51°04' E 001°27'918.5
2018-May-17 19:01N 50°59' E 001°40'713.9
2018-May-17 18:31N 50°58' E 001°51'0 0.0
2018-May-17 18:01N 50°58' E 001°51'0 0.0
2018-May-17 17:30N 50°58' E 001°51'510.9
2018-May-17 17:00N 50°58' E 001°42'816.8
2018-May-17 16:31N 51°02' E 001°31'8 6.4
2018-May-17 15:11N 51°07' E 001°20'0 1.1
2018-May-17 14:51N 51°07' E 001°20'412.3
2018-May-17 14:30N 51°06' E 001°26'917.4
2018-May-17 14:00N 51°01' E 001°38'815.3
2018-May-17 13:31N 50°58' E 001°50'1 2.0
2018-May-17 13:00N 50°58' E 001°51'0 0.0
2018-May-17 12:30N 50°58' E 001°51'510.1
2018-May-17 12:01N 50°58' E 001°43'918.7
2018-May-17 11:30N 51°02' E 001°30'8 5.4
2018-May-17 10:05N 51°07' E 001°20'  

Dump ship's entire track history